createdAt,value
2018-12-05T00:00:10.182Z,3.07
2018-12-05T00:02:42.378Z,3.73
2018-12-05T00:05:14.613Z,3.13
2018-12-05T00:07:46.820Z,3.20
2018-12-05T00:10:19.053Z,3.03
2018-12-05T00:12:51.310Z,3.43
2018-12-05T00:15:23.541Z,3.50
2018-12-05T00:17:55.772Z,3.47
2018-12-05T00:20:27.992Z,3.73
2018-12-05T00:23:00.117Z,3.53
2018-12-05T00:25:32.364Z,2.80
2018-12-05T00:28:04.594Z,2.77
2018-12-05T00:30:36.860Z,3.50
2018-12-05T00:33:08.994Z,3.73
2018-12-05T00:35:41.214Z,3.63
2018-12-05T00:38:13.478Z,4.17
2018-12-05T00:40:45.707Z,3.87
2018-12-05T00:43:17.944Z,3.80
2018-12-05T00:45:50.169Z,3.57
2018-12-05T00:48:22.437Z,3.90
2018-12-05T00:50:54.665Z,3.63
2018-12-05T00:53:26.912Z,3.60
2018-12-05T00:55:59.142Z,3.57
2018-12-05T00:58:31.418Z,3.83
2018-12-05T01:01:03.655Z,4.10
2018-12-05T01:03:35.896Z,3.67
2018-12-05T01:06:08.136Z,4.37
2018-12-05T01:08:40.382Z,3.73
2018-12-05T01:11:12.616Z,3.83
2018-12-05T01:13:44.875Z,3.83
2018-12-05T01:16:17.096Z,3.57
2018-12-05T01:18:49.347Z,4.10
2018-12-05T01:21:21.626Z,3.30
2018-12-05T01:23:53.843Z,3.80
2018-12-05T01:26:26.291Z,4.57
2018-12-05T01:28:58.501Z,4.00
2018-12-05T01:31:30.771Z,4.27
2018-12-05T01:34:02.996Z,4.50
2018-12-05T01:36:35.142Z,4.03
2018-12-05T01:39:07.464Z,4.27
2018-12-05T01:41:39.712Z,4.27
2018-12-05T01:44:11.948Z,4.10
2018-12-05T01:46:44.202Z,4.67
2018-12-05T01:49:16.423Z,4.10
2018-12-05T01:51:48.659Z,4.53
2018-12-05T01:54:20.891Z,4.90
2018-12-05T01:56:53.173Z,4.50
2018-12-05T01:59:25.394Z,4.03
2018-12-05T02:01:57.630Z,4.00
2018-12-05T02:04:29.870Z,4.13
2018-12-05T02:07:02.116Z,3.90
2018-12-05T02:09:34.227Z,4.57
2018-12-05T02:12:06.491Z,4.83
2018-12-05T02:14:38.637Z,4.27
2018-12-05T02:17:10.877Z,5.37
2018-12-05T02:19:43.116Z,5.43
2018-12-05T02:22:15.383Z,4.17
2018-12-05T02:24:47.565Z,4.83
2018-12-05T02:27:19.776Z,5.27
2018-12-05T02:29:57.163Z,5.80
2018-12-05T02:32:29.385Z,5.73
2018-12-05T02:35:02.674Z,5.03
2018-12-05T02:37:34.927Z,6.40
2018-12-05T02:40:07.220Z,4.43
2018-12-05T02:42:39.445Z,5.80
2018-12-05T02:45:11.699Z,5.43
2018-12-05T02:47:43.828Z,5.57
2018-12-05T02:50:16.063Z,5.80
2018-12-05T02:52:48.318Z,5.07
2018-12-05T02:55:20.521Z,5.93
2018-12-05T02:57:52.779Z,5.40
2018-12-05T03:00:25.043Z,6.03
2018-12-05T03:02:57.261Z,5.03
2018-12-05T03:05:29.526Z,7.30
2018-12-05T03:08:01.821Z,6.00
2018-12-05T03:10:34.175Z,6.37
2018-12-05T03:13:06.336Z,5.97
2018-12-05T03:15:38.616Z,5.80
2018-12-05T03:18:10.867Z,6.03
2018-12-05T03:20:44.056Z,6.03
2018-12-05T03:23:16.231Z,5.60
2018-12-05T03:25:48.344Z,6.50
2018-12-05T03:28:20.591Z,7.23
2018-12-05T03:30:52.817Z,6.67
2018-12-05T03:33:25.061Z,8.73
2018-12-05T03:35:57.319Z,6.60
2018-12-05T03:38:29.476Z,7.17
2018-12-05T03:41:01.724Z,6.90
2018-12-05T03:43:34.028Z,7.43
2018-12-05T03:46:06.272Z,8.47
2018-12-05T03:48:39.524Z,7.37
2018-12-05T03:51:11.739Z,7.17
2018-12-05T03:53:44.179Z,6.80
2018-12-05T03:56:16.478Z,7.40
2018-12-05T03:58:48.676Z,7.47
2018-12-05T04:01:20.914Z,7.67
2018-12-05T04:03:53.127Z,7.50
2018-12-05T04:06:25.306Z,8.07
2018-12-05T04:08:57.425Z,8.83
2018-12-05T04:11:29.584Z,9.53
2018-12-05T04:14:01.785Z,10.10
2018-12-05T04:16:33.975Z,9.73
2018-12-05T04:19:06.180Z,10.70
2018-12-05T04:21:38.407Z,9.97
2018-12-05T04:24:10.624Z,10.23
2018-12-05T04:26:42.797Z,10.60
2018-12-05T04:29:15.009Z,10.90
2018-12-05T04:31:47.300Z,10.77
2018-12-05T04:34:19.627Z,11.83
2018-12-05T04:36:51.832Z,11.37
2018-12-05T04:39:24.043Z,11.53
2018-12-05T04:41:56.217Z,12.03
2018-12-05T04:44:28.943Z,11.77
2018-12-05T04:47:01.140Z,11.90
2018-12-05T04:49:33.357Z,12.27
2018-12-05T04:52:05.577Z,11.53
2018-12-05T04:54:37.880Z,11.97
2018-12-05T04:57:10.103Z,12.13
2018-12-05T04:59:42.292Z,11.90
2018-12-05T05:02:14.509Z,11.90
2018-12-05T05:04:46.735Z,12.20
2018-12-05T05:07:18.914Z,12.50
2018-12-05T05:09:51.057Z,11.33
2018-12-05T05:12:23.285Z,11.80
2018-12-05T05:14:55.526Z,10.83
2018-12-05T05:17:27.696Z,11.80
2018-12-05T05:19:59.777Z,12.53
2018-12-05T05:22:31.935Z,11.47
2018-12-05T05:25:04.161Z,11.73
2018-12-05T05:27:36.177Z,12.73
2018-12-05T05:30:08.361Z,12.93
2018-12-05T05:32:40.599Z,13.13
2018-12-05T05:35:12.783Z,13.17
2018-12-05T05:37:44.992Z,12.40
2018-12-05T05:40:17.187Z,11.20
2018-12-05T05:42:49.372Z,12.10
2018-12-05T05:45:21.575Z,13.57
2018-12-05T05:47:53.657Z,11.53
2018-12-05T05:50:25.856Z,11.17
2018-12-05T05:52:58.006Z,12.20
2018-12-05T05:55:30.212Z,10.53
2018-12-05T05:58:02.382Z,10.47
2018-12-05T06:00:34.580Z,9.80
2018-12-05T06:03:06.793Z,10.73
2018-12-05T06:05:39.012Z,10.67
2018-12-05T06:08:11.325Z,10.93
2018-12-05T06:10:43.534Z,13.50
2018-12-05T06:13:15.681Z,12.13
2018-12-05T06:15:47.779Z,12.13
2018-12-05T06:18:20.014Z,12.07
2018-12-05T06:20:52.210Z,10.77
2018-12-05T06:23:24.368Z,12.37
2018-12-05T06:25:56.615Z,12.47
2018-12-05T06:28:28.803Z,11.77
2018-12-05T06:31:01.002Z,11.67
2018-12-05T06:33:33.176Z,11.33
2018-12-05T06:36:05.384Z,11.30
2018-12-05T06:38:37.561Z,10.43
2018-12-05T06:41:09.788Z,10.60
2018-12-05T06:43:41.865Z,11.23
2018-12-05T06:46:14.067Z,12.03
2018-12-05T06:48:46.224Z,10.53
2018-12-05T06:51:18.469Z,9.03
2018-12-05T06:53:50.636Z,8.30
2018-12-05T06:56:22.833Z,11.07
2018-12-05T06:58:54.891Z,9.67
2018-12-05T07:01:26.988Z,9.83
2018-12-05T07:03:59.152Z,9.40
2018-12-05T07:06:31.348Z,9.87
2018-12-05T07:09:06.576Z,10.57
2018-12-05T07:11:38.784Z,10.13
2018-12-05T07:14:10.975Z,11.37
2018-12-05T07:16:43.141Z,8.47
2018-12-05T07:19:15.448Z,11.03
2018-12-05T07:21:47.615Z,11.23
2018-12-05T07:24:19.810Z,9.53
2018-12-05T07:26:51.873Z,10.37
2018-12-05T07:29:24.094Z,9.53
2018-12-05T07:31:56.408Z,10.13
2018-12-05T07:34:28.536Z,12.73
2018-12-05T07:37:00.720Z,13.23
2018-12-05T07:39:32.925Z,10.47
2018-12-05T07:42:05.151Z,11.83
2018-12-05T07:44:37.358Z,9.73
2018-12-05T07:47:09.574Z,10.00
2018-12-05T07:49:41.736Z,7.20
2018-12-05T07:52:13.813Z,6.07
2018-12-05T07:54:46.029Z,5.70
2018-12-05T07:57:18.289Z,5.23
2018-12-05T07:59:50.492Z,5.40
2018-12-05T08:02:22.703Z,4.90
2018-12-05T08:04:54.843Z,4.20
2018-12-05T08:07:27.052Z,4.87
2018-12-05T08:09:59.237Z,4.40
2018-12-05T08:12:31.458Z,4.00
2018-12-05T08:15:03.973Z,3.30
2018-12-05T08:17:36.173Z,4.93
2018-12-05T08:20:08.359Z,3.53
2018-12-05T08:22:40.577Z,3.63
2018-12-05T08:25:12.855Z,4.80
2018-12-05T08:27:51.641Z,4.13
2018-12-05T08:30:23.840Z,4.60
2018-12-05T08:32:56.022Z,3.77
2018-12-05T08:35:28.243Z,4.43
2018-12-05T08:38:00.586Z,4.07
2018-12-05T08:40:33.052Z,3.90
2018-12-05T08:43:05.220Z,3.50
2018-12-05T08:45:37.510Z,3.50
2018-12-05T08:48:09.692Z,3.97
2018-12-05T08:50:41.878Z,4.30
2018-12-05T08:53:14.027Z,4.20
2018-12-05T08:55:46.234Z,4.50
2018-12-05T08:58:18.281Z,4.07
2018-12-05T09:00:50.489Z,3.50
2018-12-05T09:03:22.724Z,3.40
2018-12-05T09:05:54.933Z,3.60
2018-12-05T09:08:27.010Z,3.87
2018-12-05T09:10:59.198Z,3.37
2018-12-05T09:13:31.399Z,3.83
2018-12-05T09:16:03.581Z,3.60
2018-12-05T09:18:35.781Z,2.90
2018-12-05T09:21:07.976Z,3.47
2018-12-05T09:23:40.169Z,3.10
2018-12-05T09:26:12.222Z,3.20
2018-12-05T09:28:44.319Z,3.53
2018-12-05T09:31:16.563Z,4.27
2018-12-05T09:33:48.752Z,4.60
2018-12-05T09:36:20.955Z,3.70
2018-12-05T09:38:53.160Z,4.17
2018-12-05T09:41:25.397Z,4.03
2018-12-05T09:43:57.571Z,4.43
2018-12-05T09:46:29.780Z,4.20
2018-12-05T09:49:01.931Z,4.03
2018-12-05T09:51:34.115Z,4.30
2018-12-05T09:54:06.316Z,3.90
2018-12-05T09:56:38.528Z,3.87
2018-12-05T09:59:10.724Z,4.10
2018-12-05T10:01:42.901Z,3.20
2018-12-05T10:04:15.108Z,3.47
2018-12-05T10:06:47.228Z,3.53
2018-12-05T10:09:19.430Z,4.20
2018-12-05T10:11:51.868Z,3.77
2018-12-05T10:14:24.079Z,3.97
2018-12-05T10:16:56.267Z,3.70
2018-12-05T10:19:28.502Z,4.20
2018-12-05T10:22:00.757Z,4.17
2018-12-05T10:24:32.927Z,4.47
2018-12-05T10:27:05.017Z,4.00
2018-12-05T10:29:37.106Z,3.70
2018-12-05T10:32:09.177Z,3.87
2018-12-05T10:34:41.328Z,4.03
2018-12-05T10:37:13.427Z,3.50
2018-12-05T10:39:45.664Z,3.40
2018-12-05T10:42:17.902Z,4.67
2018-12-05T10:44:50.104Z,3.43
2018-12-05T10:47:22.393Z,4.20
2018-12-05T10:49:54.555Z,3.67
2018-12-05T10:52:26.731Z,3.17
2018-12-05T10:54:58.996Z,3.67
2018-12-05T10:57:31.144Z,3.33
2018-12-05T11:00:04.497Z,3.23
2018-12-05T11:02:42.245Z,3.30
2018-12-05T11:05:20.200Z,3.30
2018-12-05T11:07:58.312Z,3.23
2018-12-05T11:10:36.303Z,2.67
2018-12-05T11:13:14.357Z,3.17
2018-12-05T11:15:52.447Z,3.17
2018-12-05T11:18:30.358Z,2.77
2018-12-05T11:21:08.316Z,3.07
2018-12-05T11:23:47.537Z,3.67
2018-12-05T11:26:21.639Z,2.40
2018-12-05T11:28:53.900Z,3.30
2018-12-05T11:31:26.221Z,3.57
2018-12-05T11:33:58.439Z,3.03
2018-12-05T11:36:30.637Z,3.20
2018-12-05T11:39:05.228Z,2.77
2018-12-05T11:41:37.326Z,2.43
2018-12-05T11:44:09.496Z,3.23
2018-12-05T11:46:41.616Z,3.43
2018-12-05T11:49:13.807Z,3.10
2018-12-05T11:51:45.960Z,3.23
2018-12-05T11:54:18.217Z,2.70
2018-12-05T11:56:50.372Z,3.27
2018-12-05T11:59:22.469Z,3.20
2018-12-05T12:01:54.669Z,3.17
2018-12-05T12:04:26.870Z,2.30
2018-12-05T12:06:59.005Z,3.10
2018-12-05T12:09:31.212Z,2.80
2018-12-05T12:12:03.388Z,2.13
2018-12-05T12:14:35.599Z,2.23
2018-12-05T12:17:07.796Z,2.33
2018-12-05T12:19:39.857Z,2.00
2018-12-05T12:22:12.060Z,2.23
2018-12-05T12:24:44.359Z,2.30
2018-12-05T12:27:16.552Z,2.13
2018-12-05T12:29:48.668Z,3.00
2018-12-05T12:32:20.744Z,2.20
2018-12-05T12:34:52.956Z,3.30
2018-12-05T12:37:25.141Z,2.90
2018-12-05T12:39:57.366Z,2.60
2018-12-05T12:42:29.495Z,2.40
2018-12-05T12:45:01.671Z,2.73
2018-12-05T12:47:33.862Z,3.37
2018-12-05T12:50:06.274Z,4.77
2018-12-05T12:52:38.488Z,4.23
2018-12-05T12:55:10.590Z,3.73
2018-12-05T12:57:42.787Z,4.30
2018-12-05T13:00:14.991Z,3.57
2018-12-05T13:02:47.063Z,4.13
2018-12-05T13:05:19.194Z,4.10
2018-12-05T13:07:51.387Z,3.40
2018-12-05T13:10:23.487Z,4.00
2018-12-05T13:12:55.642Z,4.97
2018-12-05T13:15:27.841Z,3.30
2018-12-05T13:18:00.001Z,3.20
2018-12-05T13:20:32.215Z,3.23
2018-12-05T13:23:04.430Z,3.27
2018-12-05T13:25:36.600Z,3.23
2018-12-05T13:28:08.799Z,2.90
2018-12-05T13:30:40.877Z,2.77
2018-12-05T13:33:12.967Z,3.43
2018-12-05T13:35:45.166Z,3.20
2018-12-05T13:38:17.325Z,3.30
2018-12-05T13:40:49.562Z,4.13
2018-12-05T13:43:21.732Z,3.40
2018-12-05T13:45:53.935Z,3.23
2018-12-05T13:48:26.258Z,3.53
2018-12-05T13:50:58.413Z,3.70
2018-12-05T13:53:30.643Z,3.80
2018-12-05T13:56:03.046Z,3.13
2018-12-05T13:58:35.140Z,2.97
2018-12-05T14:01:07.301Z,2.70
2018-12-05T14:03:39.519Z,3.53
2018-12-05T14:06:11.689Z,2.87
2018-12-05T14:08:43.901Z,3.47
2018-12-05T14:11:16.095Z,3.63
2018-12-05T14:13:48.265Z,3.23
2018-12-05T14:16:20.460Z,3.53
2018-12-05T14:18:52.618Z,3.53
2018-12-05T14:21:24.703Z,4.90
2018-12-05T14:23:56.774Z,4.60
2018-12-05T14:26:28.979Z,3.90
2018-12-05T14:29:01.216Z,4.10
2018-12-05T14:31:33.411Z,3.87
2018-12-05T14:34:05.572Z,3.90
2018-12-05T14:36:37.765Z,5.03
2018-12-05T14:39:09.982Z,4.30
2018-12-05T14:41:42.176Z,4.77
2018-12-05T14:44:14.347Z,4.57
2018-12-05T14:46:46.539Z,4.63
2018-12-05T14:49:18.692Z,4.63
2018-12-05T14:51:50.909Z,4.77
2018-12-05T14:54:23.090Z,4.93
2018-12-05T14:56:55.317Z,4.77
2018-12-05T14:59:27.508Z,5.77
2018-12-05T15:02:00.018Z,5.43
2018-12-05T15:04:32.197Z,5.83
2018-12-05T15:07:04.446Z,5.47
2018-12-05T15:09:36.629Z,6.60
2018-12-05T15:12:08.810Z,6.80
2018-12-05T15:14:41.001Z,6.20
2018-12-05T15:17:13.198Z,5.83
2018-12-05T15:19:45.477Z,7.93
2018-12-05T15:22:17.663Z,7.33
2018-12-05T15:24:51.781Z,6.70
2018-12-05T15:27:23.875Z,6.67
2018-12-05T15:29:56.058Z,6.43
2018-12-05T15:32:28.257Z,5.93
2018-12-05T15:35:00.350Z,6.17
2018-12-05T15:37:32.526Z,7.10
2018-12-05T15:40:05.268Z,6.63
2018-12-05T15:42:37.428Z,6.97
2018-12-05T15:45:09.636Z,6.43
2018-12-05T15:47:41.871Z,7.40
2018-12-05T15:50:14.097Z,6.33
2018-12-05T15:52:46.275Z,6.97
2018-12-05T15:55:18.500Z,8.87
2018-12-05T15:57:50.693Z,7.30
2018-12-05T16:00:23.005Z,6.97
2018-12-05T16:02:55.222Z,7.07
2018-12-05T16:05:27.472Z,7.83
2018-12-05T16:07:59.701Z,6.80
2018-12-05T16:10:31.912Z,6.17
2018-12-05T16:13:05.183Z,9.13
2018-12-05T16:15:37.540Z,6.87
2018-12-05T16:18:09.708Z,10.53
2018-12-05T16:20:41.931Z,6.90
2018-12-05T16:23:14.096Z,8.60
2018-12-05T16:25:46.303Z,8.03
2018-12-05T16:28:18.373Z,8.30
2018-12-05T16:30:50.635Z,7.40
2018-12-05T16:33:22.686Z,6.57
2018-12-05T16:35:54.884Z,8.03
2018-12-05T16:38:26.968Z,7.00
2018-12-05T16:40:59.141Z,8.33
2018-12-05T16:43:31.321Z,6.37
2018-12-05T16:46:03.513Z,7.13
2018-12-05T16:48:35.737Z,7.10
2018-12-05T16:51:07.939Z,5.70
2018-12-05T16:53:40.160Z,5.87
2018-12-05T16:56:12.361Z,6.33
2018-12-05T16:58:44.563Z,7.63
2018-12-05T17:01:16.741Z,6.93
2018-12-05T17:03:49.383Z,6.53
2018-12-05T17:06:21.762Z,7.20
2018-12-05T17:08:53.990Z,7.17
2018-12-05T17:11:26.160Z,6.27
2018-12-05T17:13:58.356Z,5.60
2018-12-05T17:16:30.552Z,6.87
2018-12-05T17:19:02.768Z,6.37
2018-12-05T17:21:34.925Z,5.67
2018-12-05T17:24:07.105Z,5.13
2018-12-05T17:26:39.365Z,6.00
2018-12-05T17:29:11.580Z,5.27
2018-12-05T17:31:43.829Z,5.57
2018-12-05T17:34:16.056Z,5.40
2018-12-05T17:36:48.270Z,6.07
2018-12-05T17:39:20.457Z,5.47
2018-12-05T17:41:52.571Z,7.67
2018-12-05T17:44:24.824Z,5.93
2018-12-05T17:46:57.086Z,5.87
2018-12-05T17:49:29.268Z,8.27
2018-12-05T17:52:01.483Z,6.10
2018-12-05T17:54:33.664Z,6.20
2018-12-05T17:57:05.865Z,6.93
2018-12-05T17:59:38.046Z,7.03
2018-12-05T18:02:10.245Z,7.33
2018-12-05T18:04:42.442Z,6.37
2018-12-05T18:07:14.729Z,7.07
2018-12-05T18:09:46.909Z,6.73
2018-12-05T18:12:19.134Z,7.23
2018-12-05T18:14:51.231Z,6.73
2018-12-05T18:17:23.456Z,6.03
2018-12-05T18:19:55.712Z,7.77
2018-12-05T18:22:27.827Z,6.93
2018-12-05T18:25:00.078Z,6.33
2018-12-05T18:27:32.169Z,6.47
2018-12-05T18:30:06.210Z,6.63
2018-12-05T18:32:38.426Z,6.90
2018-12-05T18:35:10.720Z,6.73
2018-12-05T18:37:42.970Z,12.57
2018-12-05T18:40:15.250Z,6.93
2018-12-05T18:42:47.449Z,7.87
2018-12-05T18:45:19.677Z,7.23
2018-12-05T18:47:51.863Z,11.03
2018-12-05T18:50:24.087Z,9.00
2018-12-05T18:52:56.337Z,9.17
2018-12-05T18:55:28.505Z,8.70
2018-12-05T18:58:00.673Z,8.67
2018-12-05T19:00:32.868Z,5.87
2018-12-05T19:03:05.083Z,7.23
2018-12-05T19:05:37.288Z,6.53
2018-12-05T19:08:09.616Z,7.00
2018-12-05T19:10:41.801Z,6.57
2018-12-05T19:13:14.052Z,9.50
2018-12-05T19:15:46.140Z,8.93
2018-12-05T19:18:18.237Z,8.33
2018-12-05T19:20:50.424Z,8.47
2018-12-05T19:23:22.641Z,10.73
2018-12-05T19:25:54.830Z,12.83
2018-12-05T19:28:27.040Z,11.10
2018-12-05T19:30:59.255Z,8.60
2018-12-05T19:33:31.444Z,6.40
2018-12-05T19:36:03.670Z,6.70
2018-12-05T19:38:35.903Z,5.97
2018-12-05T19:41:10.870Z,7.33
2018-12-05T19:43:43.140Z,5.43
2018-12-05T19:46:15.629Z,5.87
2018-12-05T19:48:47.851Z,5.67
2018-12-05T19:51:20.080Z,6.70
2018-12-05T19:53:52.293Z,5.80
2018-12-05T19:56:26.841Z,5.20
2018-12-05T19:59:03.902Z,5.63
2018-12-05T20:01:36.777Z,5.70
2018-12-05T20:04:08.956Z,4.90
2018-12-05T20:06:42.001Z,4.63
2018-12-05T20:09:14.226Z,5.43
2018-12-05T20:11:47.109Z,4.67
2018-12-05T20:14:25.077Z,4.97
2018-12-05T20:16:57.661Z,5.20
2018-12-05T20:19:29.847Z,4.87
2018-12-05T20:22:02.109Z,4.53
2018-12-05T20:24:34.335Z,4.10
2018-12-05T20:27:06.736Z,6.07
2018-12-05T20:29:39.353Z,3.33
2018-12-05T20:32:11.484Z,4.27
2018-12-05T20:34:43.704Z,3.57
2018-12-05T20:37:15.798Z,4.80
2018-12-05T20:39:47.905Z,4.03
2018-12-05T20:42:20.085Z,4.07
2018-12-05T20:44:52.287Z,4.10
2018-12-05T20:47:24.479Z,4.53
2018-12-05T20:49:56.690Z,3.37
2018-12-05T20:52:28.881Z,4.10
2018-12-05T20:55:01.002Z,3.87
2018-12-05T20:57:33.184Z,4.40
2018-12-05T21:00:05.643Z,3.00
2018-12-05T21:02:37.835Z,3.83
2018-12-05T21:05:10.058Z,4.80
2018-12-05T21:07:42.284Z,4.03
2018-12-05T21:10:14.528Z,3.53
2018-12-05T21:12:46.733Z,4.40
2018-12-05T21:15:18.945Z,3.90
2018-12-05T21:17:51.171Z,4.33
2018-12-05T21:20:23.347Z,4.10
2018-12-05T21:22:55.548Z,4.50
2018-12-05T21:25:28.021Z,4.47
2018-12-05T21:28:00.103Z,3.83
2018-12-05T21:30:32.348Z,3.53
2018-12-05T21:33:04.470Z,3.50
2018-12-05T21:35:36.671Z,3.87
2018-12-05T21:38:08.880Z,3.90
2018-12-05T21:40:41.112Z,3.30
2018-12-05T21:43:13.282Z,3.23
2018-12-05T21:45:45.491Z,3.57
2018-12-05T21:48:17.676Z,4.27
2018-12-05T21:50:49.871Z,3.03
2018-12-05T21:53:21.956Z,3.90
2018-12-05T21:55:54.233Z,3.30
2018-12-05T21:58:26.467Z,4.60
2018-12-05T22:00:58.685Z,3.30
2018-12-05T22:03:30.922Z,4.03
2018-12-05T22:06:03.273Z,3.70
2018-12-05T22:08:35.525Z,3.57
2018-12-05T22:11:07.700Z,3.87
2018-12-05T22:13:39.913Z,3.70
2018-12-05T22:16:12.128Z,4.00
2018-12-05T22:18:44.307Z,3.90
2018-12-05T22:21:16.490Z,3.43
2018-12-05T22:23:48.755Z,4.30
2018-12-05T22:26:20.945Z,4.60
2018-12-05T22:28:53.126Z,3.73
2018-12-05T22:31:25.350Z,4.33
2018-12-05T22:33:57.452Z,3.97
2018-12-05T22:36:30.169Z,4.27
2018-12-05T22:39:03.992Z,4.43
2018-12-05T22:41:36.206Z,4.20
2018-12-05T22:44:08.381Z,4.20
2018-12-05T22:46:40.612Z,4.13
2018-12-05T22:49:12.789Z,4.37
2018-12-05T22:51:44.968Z,4.70
2018-12-05T22:54:17.169Z,4.37
2018-12-05T22:57:00.773Z,4.77
2018-12-05T22:59:32.982Z,4.70
2018-12-05T23:02:05.271Z,4.63
2018-12-05T23:04:37.479Z,5.27
2018-12-05T23:07:09.675Z,5.10
2018-12-05T23:09:41.900Z,5.13
2018-12-05T23:12:14.022Z,4.80
2018-12-05T23:14:46.247Z,5.27
2018-12-05T23:17:18.525Z,4.57
2018-12-05T23:19:50.635Z,5.03
2018-12-05T23:22:22.825Z,5.33
2018-12-05T23:24:54.925Z,5.43
2018-12-05T23:27:27.086Z,4.80
2018-12-05T23:29:59.326Z,4.77
2018-12-05T23:32:31.506Z,4.47
2018-12-05T23:35:03.853Z,4.60
2018-12-05T23:37:36.854Z,4.97
2018-12-05T23:40:08.776Z,5.50
2018-12-05T23:42:41.579Z,4.67
2018-12-05T23:45:13.910Z,5.00
2018-12-05T23:47:46.092Z,5.57
2018-12-05T23:50:18.207Z,6.10
2018-12-05T23:52:50.461Z,4.90
2018-12-05T23:55:22.645Z,4.97
2018-12-05T23:57:54.900Z,5.40
